createdAt,value
2022-09-14T00:00:44.810Z,4.60
2022-09-14T00:03:36.115Z,4.40
2022-09-14T00:06:19.318Z,3.90
2022-09-14T00:08:55.821Z,2.60
2022-09-14T00:11:49.970Z,3.20
2022-09-14T00:14:26.727Z,3.90
2022-09-14T00:17:02.784Z,3.90
2022-09-14T00:19:36.131Z,4.10
2022-09-14T00:22:09.407Z,4.20
2022-09-14T00:25:02.873Z,5.20
2022-09-14T00:27:46.468Z,5.00
2022-09-14T00:30:23.820Z,6.70
2022-09-14T00:32:57.601Z,6.20
2022-09-14T00:35:30.702Z,5.30
2022-09-14T00:38:03.737Z,5.40
2022-09-14T00:40:36.826Z,6.10
2022-09-14T00:43:17.253Z,4.50
2022-09-14T00:45:50.781Z,4.10
2022-09-14T00:48:27.227Z,5.70
2022-09-14T00:51:00.662Z,4.70
2022-09-14T00:53:36.880Z,5.50
2022-09-14T00:56:14.629Z,5.20
2022-09-14T00:58:53.454Z,4.70
2022-09-14T01:01:36.015Z,6.00
2022-09-14T01:04:11.964Z,4.80
2022-09-14T01:07:06.507Z,6.90
2022-09-14T01:10:16.285Z,6.80
2022-09-14T01:13:13.148Z,6.50
2022-09-14T01:16:17.273Z,5.60
2022-09-14T01:19:18.422Z,5.70
2022-09-14T01:21:53.022Z,5.80
2022-09-14T01:24:45.550Z,6.70
2022-09-14T01:27:30.566Z,6.20
2022-09-14T01:30:13.537Z,5.80
2022-09-14T01:32:53.016Z,7.40
2022-09-14T01:35:31.601Z,6.20
2022-09-14T01:38:08.769Z,7.20
2022-09-14T01:40:45.540Z,6.30
2022-09-14T01:43:24.060Z,10.10
2022-09-14T01:46:01.993Z,8.00
2022-09-14T01:48:41.455Z,9.40
2022-09-14T01:51:41.487Z,9.70
2022-09-14T01:54:24.861Z,10.10
2022-09-14T01:57:18.393Z,9.60
2022-09-14T01:59:55.847Z,9.50
2022-09-14T02:02:33.700Z,9.70
2022-09-14T02:05:21.809Z,9.20
2022-09-14T02:07:58.465Z,11.10
2022-09-14T02:10:35.217Z,11.80
2022-09-14T02:13:09.789Z,13.30
2022-09-14T02:15:45.614Z,13.30
2022-09-14T02:18:19.104Z,13.00
2022-09-14T02:20:56.719Z,14.00
2022-09-14T02:23:30.385Z,14.40
2022-09-14T02:26:04.062Z,16.00
2022-09-14T02:28:37.469Z,16.10
2022-09-14T02:31:19.640Z,17.20
2022-09-14T02:34:05.130Z,18.00
2022-09-14T02:36:50.519Z,17.80
2022-09-14T02:39:33.654Z,17.90
2022-09-14T02:42:16.432Z,17.90
2022-09-14T02:45:09.385Z,20.70
2022-09-14T02:48:01.979Z,21.50
2022-09-14T02:50:42.259Z,20.40
2022-09-14T02:53:20.000Z,22.50
2022-09-14T02:56:15.534Z,20.50
2022-09-14T02:58:49.285Z,21.20
2022-09-14T03:01:24.322Z,21.00
2022-09-14T03:04:00.784Z,23.40
2022-09-14T03:06:54.193Z,22.40
2022-09-14T03:09:27.219Z,21.10
2022-09-14T03:12:03.739Z,22.70
2022-09-14T03:14:57.004Z,24.20
2022-09-14T03:17:41.272Z,24.00
2022-09-14T03:20:14.918Z,27.10
2022-09-14T03:22:50.689Z,24.00
2022-09-14T03:25:24.503Z,22.50
2022-09-14T03:28:02.305Z,26.00
2022-09-14T03:30:38.661Z,23.20
2022-09-14T03:33:12.472Z,21.50
2022-09-14T03:36:14.315Z,25.10
2022-09-14T03:38:49.231Z,27.50
2022-09-14T03:41:23.597Z,25.30
2022-09-14T03:44:17.023Z,22.70
2022-09-14T03:46:50.354Z,24.10
2022-09-14T03:49:34.938Z,22.20
2022-09-14T03:52:08.181Z,23.20
2022-09-14T03:54:41.125Z,23.10
2022-09-14T03:57:25.349Z,25.90
2022-09-14T03:59:58.621Z,24.60
2022-09-14T04:02:45.856Z,23.20
2022-09-14T04:05:21.833Z,25.40
2022-09-14T04:08:15.563Z,23.50
2022-09-14T04:10:51.556Z,22.90
2022-09-14T04:13:28.391Z,24.20
2022-09-14T04:16:05.916Z,21.20
2022-09-14T04:18:39.125Z,20.60
2022-09-14T04:21:17.884Z,22.90
2022-09-14T04:24:15.957Z,22.50
2022-09-14T04:27:09.527Z,21.70
2022-09-14T04:29:42.625Z,19.60
2022-09-14T04:32:15.741Z,19.10
2022-09-14T04:35:10.013Z,22.20
2022-09-14T04:37:46.406Z,20.90
2022-09-14T04:40:43.936Z,25.30
2022-09-14T04:43:20.143Z,20.60
2022-09-14T04:45:53.852Z,21.10
2022-09-14T04:48:27.534Z,19.50
2022-09-14T04:51:06.349Z,20.90
2022-09-14T04:53:40.317Z,21.20
2022-09-14T04:56:17.504Z,23.40
2022-09-14T04:59:11.099Z,20.50
2022-09-14T05:02:04.478Z,18.60
2022-09-14T05:04:37.600Z,22.70
2022-09-14T05:07:14.280Z,22.20
2022-09-14T05:09:56.605Z,26.20
2022-09-14T05:12:49.826Z,23.40
2022-09-14T05:15:26.174Z,20.60
2022-09-14T05:17:59.478Z,21.00
2022-09-14T05:20:52.949Z,19.40
2022-09-14T05:23:26.113Z,20.60
2022-09-14T05:25:59.817Z,21.90
2022-09-14T05:28:33.821Z,20.90
2022-09-14T05:31:13.316Z,22.20
2022-09-14T05:33:50.390Z,17.40
2022-09-14T05:36:23.846Z,17.60
2022-09-14T05:39:00.289Z,19.80
2022-09-14T05:41:33.480Z,22.40
2022-09-14T05:44:26.998Z,20.80
2022-09-14T05:47:00.209Z,19.60
2022-09-14T05:49:33.780Z,21.80
2022-09-14T05:52:09.657Z,20.60
2022-09-14T05:54:45.993Z,19.20
2022-09-14T05:57:19.307Z,25.20
2022-09-14T05:59:53.009Z,25.20
2022-09-14T06:02:26.145Z,26.00
2022-09-14T06:05:01.865Z,26.60
2022-09-14T06:07:37.888Z,30.00
2022-09-14T06:10:12.815Z,30.00
2022-09-14T06:12:54.782Z,28.50
2022-09-14T06:15:28.692Z,29.00
2022-09-14T06:18:04.191Z,29.60
2022-09-14T06:20:37.445Z,26.90
2022-09-14T06:23:10.674Z,27.80
2022-09-14T06:25:47.096Z,25.10
2022-09-14T06:28:20.143Z,24.60
2022-09-14T06:30:53.364Z,22.30
2022-09-14T06:33:27.015Z,24.00
2022-09-14T06:36:02.298Z,24.90
2022-09-14T06:38:36.392Z,23.60
2022-09-14T06:41:11.892Z,26.50
2022-09-14T06:43:45.728Z,24.00
2022-09-14T06:46:20.969Z,22.80
2022-09-14T06:48:57.393Z,25.90
2022-09-14T06:51:33.070Z,27.00
2022-09-14T06:54:07.533Z,22.80
2022-09-14T06:57:01.102Z,23.00
2022-09-14T06:59:37.027Z,24.80
2022-09-14T07:02:10.874Z,22.90
2022-09-14T07:04:47.491Z,23.80
2022-09-14T07:07:23.802Z,23.20
2022-09-14T07:09:57.178Z,23.40
2022-09-14T07:12:31.135Z,24.20
2022-09-14T07:15:09.755Z,20.50
2022-09-14T07:17:45.939Z,24.30
2022-09-14T07:20:40.142Z,23.90
2022-09-14T07:23:13.988Z,23.40
2022-09-14T07:25:47.439Z,23.90
2022-09-14T07:28:20.724Z,24.20
2022-09-14T07:30:58.340Z,21.70
2022-09-14T07:33:33.063Z,19.40
2022-09-14T07:36:12.790Z,21.30
2022-09-14T07:38:52.507Z,19.80
2022-09-14T07:41:40.374Z,17.80
2022-09-14T07:44:17.818Z,17.00
2022-09-14T07:46:52.733Z,16.00
2022-09-14T07:49:46.542Z,15.80
2022-09-14T07:52:34.515Z,14.70
2022-09-14T07:55:13.968Z,13.60
2022-09-14T07:57:56.493Z,11.90
2022-09-14T08:00:33.451Z,13.70
2022-09-14T08:03:06.710Z,12.50
2022-09-14T08:05:40.630Z,12.40
2022-09-14T08:08:13.879Z,13.10
2022-09-14T08:10:47.067Z,11.20
2022-09-14T08:13:20.276Z,13.80
2022-09-14T08:15:53.760Z,13.30
2022-09-14T08:18:27.240Z,11.40
2022-09-14T08:21:04.772Z,13.20
2022-09-14T08:23:39.134Z,17.10
2022-09-14T08:26:14.488Z,11.50
2022-09-14T08:28:48.294Z,12.10
2022-09-14T08:31:24.347Z,12.20
2022-09-14T08:33:59.656Z,12.00
2022-09-14T08:36:34.828Z,13.30
2022-09-14T08:39:09.651Z,15.70
2022-09-14T08:41:48.180Z,14.30
2022-09-14T08:44:26.189Z,13.50
2022-09-14T08:47:04.164Z,13.50
2022-09-14T08:50:00.634Z,14.10
2022-09-14T08:52:37.614Z,16.40
2022-09-14T08:55:26.183Z,13.20
2022-09-14T08:58:04.096Z,14.50
2022-09-14T09:00:44.365Z,13.80
2022-09-14T09:03:39.352Z,13.30
2022-09-14T09:06:19.639Z,14.70
2022-09-14T09:09:03.241Z,12.80
2022-09-14T09:11:41.364Z,12.70
2022-09-14T09:14:21.480Z,14.20
2022-09-14T09:16:58.651Z,10.40
2022-09-14T09:19:36.345Z,11.50
2022-09-14T09:22:15.871Z,12.40
2022-09-14T09:24:52.957Z,11.80
2022-09-14T09:27:28.238Z,17.80
2022-09-14T09:30:01.398Z,12.90
2022-09-14T09:32:45.489Z,11.60
2022-09-14T09:35:40.775Z,14.00
2022-09-14T09:38:25.298Z,15.00
2022-09-14T09:41:08.095Z,11.90
2022-09-14T09:44:01.767Z,11.20
2022-09-14T09:46:36.546Z,14.40
2022-09-14T09:49:22.559Z,18.10
2022-09-14T09:52:08.278Z,12.70
2022-09-14T09:55:04.113Z,12.10
2022-09-14T09:57:57.679Z,13.10
2022-09-14T10:00:36.481Z,13.30
2022-09-14T10:03:31.295Z,11.10
2022-09-14T10:06:10.606Z,11.50
2022-09-14T10:08:48.893Z,9.80
2022-09-14T10:11:38.429Z,8.60
2022-09-14T10:14:26.081Z,10.30
2022-09-14T10:17:22.181Z,8.10
2022-09-14T10:19:58.588Z,9.30
2022-09-14T10:22:33.423Z,9.50
2022-09-14T10:25:26.633Z,9.10
2022-09-14T10:28:03.802Z,9.50
2022-09-14T10:30:42.149Z,7.40
2022-09-14T10:33:19.559Z,8.50
2022-09-14T10:36:05.878Z,9.70
2022-09-14T10:38:53.380Z,7.30
2022-09-14T10:41:37.561Z,6.80
2022-09-14T10:44:36.346Z,8.60
2022-09-14T10:47:27.743Z,7.80
2022-09-14T10:50:19.713Z,6.40
2022-09-14T10:53:04.700Z,6.80
2022-09-14T10:55:49.050Z,5.30
2022-09-14T10:58:41.242Z,6.30
2022-09-14T11:01:29.086Z,5.40
2022-09-14T11:04:19.011Z,5.60
2022-09-14T11:07:01.692Z,6.70
2022-09-14T11:09:44.196Z,6.90
2022-09-14T11:12:23.576Z,4.80
2022-09-14T11:15:09.906Z,7.50
2022-09-14T11:18:04.616Z,7.10
2022-09-14T11:20:46.115Z,6.40
2022-09-14T11:23:32.456Z,7.80
2022-09-14T11:26:13.115Z,6.70
2022-09-14T11:28:50.757Z,9.30
2022-09-14T11:31:28.139Z,7.20
2022-09-14T11:34:14.503Z,5.30
2022-09-14T11:36:52.640Z,5.00
2022-09-14T11:39:29.575Z,4.40
2022-09-14T11:42:08.077Z,4.50
2022-09-14T11:44:47.428Z,9.30
2022-09-14T11:47:24.384Z,6.10
2022-09-14T11:50:04.448Z,6.20
2022-09-14T11:52:38.179Z,7.70
2022-09-14T11:55:24.475Z,5.40
2022-09-14T11:58:00.749Z,6.30
2022-09-14T12:01:07.583Z,7.00
2022-09-14T12:03:56.425Z,4.70
2022-09-14T12:06:47.868Z,4.40
2022-09-14T12:09:55.210Z,3.90
2022-09-14T12:12:42.373Z,6.70
2022-09-14T12:15:34.666Z,5.50
2022-09-14T12:18:29.160Z,6.40
2022-09-14T12:21:09.630Z,4.10
2022-09-14T12:24:17.111Z,7.40
2022-09-14T12:26:51.997Z,6.70
2022-09-14T12:29:35.810Z,4.50
2022-09-14T12:32:40.961Z,7.60
2022-09-14T12:35:48.605Z,4.80
2022-09-14T12:38:43.496Z,4.40
2022-09-14T12:41:51.083Z,5.50
2022-09-14T12:44:39.091Z,7.50
2022-09-14T12:47:58.203Z,4.90
2022-09-14T12:50:43.381Z,4.70
2022-09-14T12:53:33.820Z,5.20
2022-09-14T12:59:30.442Z,7.10
2022-09-14T13:02:27.421Z,4.10
2022-09-14T13:05:01.451Z,4.90
2022-09-14T13:07:57.996Z,7.60
2022-09-14T13:10:54.452Z,8.40
2022-09-14T13:13:49.494Z,5.50
2022-09-14T13:16:36.601Z,8.70
2022-09-14T13:19:31.664Z,7.60
2022-09-14T13:22:24.572Z,5.90
2022-09-14T13:25:08.507Z,6.70
2022-09-14T13:28:04.872Z,4.50
2022-09-14T13:30:42.119Z,6.10
2022-09-14T13:33:20.273Z,4.50
2022-09-14T13:35:58.936Z,6.30
2022-09-14T13:38:53.215Z,4.80
2022-09-14T13:41:30.603Z,6.20
2022-09-14T13:44:09.582Z,6.90
2022-09-14T13:46:43.019Z,7.10
2022-09-14T13:49:16.725Z,8.40
2022-09-14T13:51:50.127Z,5.60
2022-09-14T13:54:31.926Z,7.60
2022-09-14T13:57:27.068Z,8.90
2022-09-14T14:00:26.201Z,5.80
2022-09-14T14:03:05.787Z,6.50
2022-09-14T14:05:59.633Z,6.10
2022-09-14T14:08:36.917Z,8.10
2022-09-14T14:11:13.354Z,6.00
2022-09-14T14:13:50.468Z,6.30
2022-09-14T14:16:28.051Z,7.80
2022-09-14T14:19:04.696Z,5.80
2022-09-14T14:21:37.820Z,6.20
2022-09-14T14:24:29.765Z,5.60
2022-09-14T14:27:03.493Z,6.30
2022-09-14T14:29:36.789Z,6.50
2022-09-14T14:32:32.015Z,6.60
2022-09-14T14:35:16.164Z,5.80
2022-09-14T14:37:52.482Z,7.60
2022-09-14T14:40:39.950Z,6.90
2022-09-14T14:43:21.632Z,7.60
2022-09-14T14:45:57.230Z,5.30
2022-09-14T14:48:31.901Z,6.30
2022-09-14T14:51:14.307Z,6.20
2022-09-14T14:54:08.042Z,5.00
2022-09-14T14:56:53.364Z,3.90
2022-09-14T14:59:31.568Z,5.60
2022-09-14T15:02:08.231Z,6.90
2022-09-14T15:04:45.518Z,6.00
2022-09-14T15:07:19.101Z,6.30
2022-09-14T15:09:52.495Z,4.30
2022-09-14T15:12:26.056Z,6.50
2022-09-14T15:14:59.404Z,5.30
2022-09-14T15:17:33.331Z,5.90
2022-09-14T15:20:10.999Z,6.20
2022-09-14T15:22:47.920Z,6.40
2022-09-14T15:25:24.726Z,6.20
2022-09-14T15:27:58.617Z,7.10
2022-09-14T15:30:34.796Z,6.20
2022-09-14T15:33:08.439Z,3.70
2022-09-14T15:35:45.145Z,6.00
2022-09-14T15:38:21.124Z,5.40
2022-09-14T15:40:55.031Z,5.40
2022-09-14T15:43:31.553Z,6.00
2022-09-14T15:46:06.706Z,7.90
2022-09-14T15:48:56.531Z,5.80
2022-09-14T15:51:33.434Z,4.90
2022-09-14T15:54:07.535Z,6.30
2022-09-14T15:56:41.250Z,6.80
2022-09-14T15:59:14.736Z,6.70
2022-09-14T16:01:48.573Z,5.50
2022-09-14T16:04:24.926Z,6.00
2022-09-14T16:06:58.067Z,6.30
2022-09-14T16:09:35.095Z,4.90
2022-09-14T16:12:09.672Z,4.70
2022-09-14T16:14:50.475Z,5.40
2022-09-14T16:17:43.895Z,5.70
2022-09-14T16:20:20.101Z,6.10
2022-09-14T16:22:53.665Z,5.30
2022-09-14T16:25:29.397Z,6.10
2022-09-14T16:28:05.780Z,6.00
2022-09-14T16:30:38.921Z,8.10
2022-09-14T16:33:12.413Z,9.00
2022-09-14T16:35:48.017Z,6.80
2022-09-14T16:38:23.394Z,9.70
2022-09-14T16:41:01.618Z,8.10
2022-09-14T16:43:38.134Z,6.80
2022-09-14T16:46:13.756Z,8.10
2022-09-14T16:51:25.397Z,9.60
2022-09-14T16:53:59.734Z,6.60
2022-09-14T16:56:37.103Z,9.00
2022-09-14T16:59:13.606Z,7.40
2022-09-14T17:01:53.562Z,8.70
2022-09-14T17:04:31.258Z,9.60
2022-09-14T17:07:04.395Z,7.90
2022-09-14T17:09:37.746Z,8.30
2022-09-14T17:12:19.764Z,7.30
2022-09-14T17:14:54.085Z,10.60
2022-09-14T17:17:30.417Z,11.50
2022-09-14T17:20:23.756Z,10.40
2022-09-14T17:22:56.815Z,9.30
2022-09-14T17:25:30.334Z,8.90
2022-09-14T17:28:03.837Z,9.60
2022-09-14T17:30:36.981Z,8.20
2022-09-14T17:33:10.752Z,6.40
2022-09-14T17:35:49.731Z,8.60
2022-09-14T17:38:24.386Z,8.90
2022-09-14T17:41:05.265Z,10.20
2022-09-14T17:43:39.624Z,9.10
2022-09-14T17:46:16.565Z,9.80
2022-09-14T17:48:50.378Z,11.10
2022-09-14T17:51:25.653Z,12.60
2022-09-14T17:54:00.295Z,13.10
2022-09-14T17:56:33.860Z,9.60
2022-09-14T17:59:12.192Z,13.50
2022-09-14T18:01:45.767Z,8.30
2022-09-14T18:04:19.628Z,9.00
2022-09-14T18:06:53.501Z,10.90
2022-09-14T18:09:29.946Z,8.90
2022-09-14T18:12:03.574Z,11.50
2022-09-14T18:14:37.236Z,15.30
2022-09-14T18:17:10.612Z,11.50
2022-09-14T18:19:44.901Z,12.70
2022-09-14T18:22:19.343Z,12.00
2022-09-14T18:24:52.935Z,12.90
2022-09-14T18:27:29.503Z,12.90
2022-09-14T18:30:07.418Z,11.60
2022-09-14T18:32:41.170Z,10.70
2022-09-14T18:35:15.715Z,13.40
2022-09-14T18:37:49.816Z,9.60
2022-09-14T18:40:23.898Z,11.90
2022-09-14T18:43:00.173Z,12.40
2022-09-14T18:45:36.082Z,10.00
2022-09-14T18:48:30.126Z,22.20
2022-09-14T18:51:05.734Z,10.50
2022-09-14T18:53:39.672Z,10.70
2022-09-14T18:56:22.896Z,9.60
2022-09-14T18:58:56.783Z,14.10
2022-09-14T19:01:30.987Z,10.40
2022-09-14T19:04:05.561Z,12.80
2022-09-14T19:06:41.627Z,10.60
2022-09-14T19:09:16.033Z,12.90
2022-09-14T19:11:49.724Z,13.00
2022-09-14T19:14:23.459Z,9.80
2022-09-14T19:16:59.572Z,12.60
2022-09-14T19:19:33.774Z,14.90
2022-09-14T19:22:07.627Z,12.50
2022-09-14T19:24:43.626Z,11.40
2022-09-14T19:27:18.364Z,13.90
2022-09-14T19:29:53.619Z,12.70
2022-09-14T19:32:30.459Z,16.90
2022-09-14T19:35:04.234Z,13.80
2022-09-14T19:37:37.899Z,16.30
2022-09-14T19:40:12.844Z,13.80
2022-09-14T19:42:47.786Z,14.20
2022-09-14T19:45:22.105Z,13.30
2022-09-14T19:47:55.292Z,18.40
2022-09-14T19:50:28.786Z,12.80
2022-09-14T19:53:05.368Z,17.70
2022-09-14T19:55:39.600Z,16.40
2022-09-14T19:58:13.422Z,15.00
2022-09-14T20:00:47.292Z,15.30
2022-09-14T20:03:21.134Z,14.10
2022-09-14T20:06:05.024Z,13.10
2022-09-14T20:08:39.212Z,13.90
2022-09-14T20:11:20.085Z,15.20
2022-09-14T20:13:54.543Z,16.60
2022-09-14T20:16:32.439Z,14.90
2022-09-14T20:19:10.600Z,16.80
2022-09-14T20:21:45.263Z,13.50
2022-09-14T20:24:25.961Z,13.80
2022-09-14T20:27:01.266Z,13.60
2022-09-14T20:29:43.660Z,12.40
2022-09-14T20:32:20.132Z,14.40
2022-09-14T20:34:53.586Z,11.80
2022-09-14T20:37:26.774Z,14.00
2022-09-14T20:39:59.950Z,15.00
2022-09-14T20:42:33.360Z,13.90
2022-09-14T20:45:07.820Z,15.70
2022-09-14T20:47:40.929Z,14.60
2022-09-14T20:50:16.773Z,14.10
2022-09-14T20:52:50.286Z,14.20
2022-09-14T20:55:23.357Z,11.10
2022-09-14T20:57:56.532Z,13.40
2022-09-14T21:00:30.230Z,16.60
2022-09-14T21:03:03.503Z,13.40
2022-09-14T21:05:37.013Z,15.60
2022-09-14T21:08:10.433Z,13.70
2022-09-14T21:10:43.683Z,12.00
2022-09-14T21:13:37.626Z,17.30
2022-09-14T21:16:23.085Z,13.40
2022-09-14T21:19:00.541Z,12.80
2022-09-14T21:21:54.200Z,15.50
2022-09-14T21:24:36.569Z,12.40
2022-09-14T21:27:30.228Z,15.50
2022-09-14T21:30:03.515Z,14.10
2022-09-14T21:32:36.673Z,13.80
2022-09-14T21:35:23.841Z,13.00
2022-09-14T21:37:57.099Z,15.00
2022-09-14T21:40:30.274Z,13.40
2022-09-14T21:43:03.465Z,11.20
2022-09-14T21:45:49.438Z,14.10
2022-09-14T21:48:23.090Z,13.20
2022-09-14T21:51:05.047Z,18.40
2022-09-14T21:53:38.423Z,13.40
2022-09-14T21:56:14.882Z,14.50
2022-09-14T21:58:50.784Z,13.70
2022-09-14T22:01:33.240Z,15.60
2022-09-14T22:04:08.360Z,13.30
2022-09-14T22:06:41.835Z,15.90
2022-09-14T22:09:19.980Z,13.70
2022-09-14T22:11:53.315Z,12.40
2022-09-14T22:14:30.024Z,15.80
2022-09-14T22:17:03.386Z,13.30
2022-09-14T22:19:36.654Z,14.40
2022-09-14T22:22:09.804Z,14.00
2022-09-14T22:24:43.348Z,13.90
2022-09-14T22:27:16.818Z,14.50
2022-09-14T22:29:49.974Z,13.20
2022-09-14T22:32:23.062Z,14.80
2022-09-14T22:34:56.307Z,13.90
2022-09-14T22:37:32.417Z,13.00
2022-09-14T22:40:06.297Z,14.20
2022-09-14T22:42:39.488Z,15.20
2022-09-14T22:45:32.881Z,17.30
2022-09-14T22:48:08.671Z,15.00
2022-09-14T22:50:42.961Z,14.00
2022-09-14T22:53:19.089Z,13.70
2022-09-14T22:55:55.323Z,13.80
2022-09-14T22:58:29.725Z,14.50
2022-09-14T23:01:09.153Z,15.80
2022-09-14T23:04:04.891Z,12.70
2022-09-14T23:06:42.244Z,12.70
2022-09-14T23:09:17.652Z,14.10
2022-09-14T23:11:51.550Z,12.30
2022-09-14T23:14:33.976Z,13.10
2022-09-14T23:17:07.134Z,14.70
2022-09-14T23:19:40.584Z,12.20
2022-09-14T23:22:17.488Z,14.50
2022-09-14T23:24:53.324Z,14.30
2022-09-14T23:27:26.553Z,13.50
2022-09-14T23:29:59.852Z,15.10
2022-09-14T23:32:33.571Z,13.80
2022-09-14T23:35:07.651Z,12.30
2022-09-14T23:37:43.190Z,12.90
2022-09-14T23:40:18.799Z,14.70
2022-09-14T23:42:54.349Z,14.40
2022-09-14T23:45:27.610Z,12.80
2022-09-14T23:48:04.192Z,15.80
2022-09-14T23:50:37.464Z,15.30
2022-09-14T23:53:10.848Z,16.30
2022-09-14T23:55:51.901Z,13.60
2022-09-14T23:58:28.277Z,13.30
